sensor_id;sensor_type;location;lat;lon;timestamp;temperature;humidity
29917;DHT22;16786;49.466;11.068;2023-02-13T00:02:11;4.30;99.90
29917;DHT22;16786;49.466;11.068;2023-02-13T00:04:40;4.10;99.90
29917;DHT22;16786;49.466;11.068;2023-02-13T00:07:11;4.10;99.90
29917;DHT22;16786;49.466;11.068;2023-02-13T00:09:39;4.00;99.90
29917;DHT22;16786;49.466;11.068;2023-02-13T00:12:07;4.00;99.90
29917;DHT22;16786;49.466;11.068;2023-02-13T00:14:37;3.90;99.90
29917;DHT22;16786;49.466;11.068;2023-02-13T00:17:05;3.80;99.90
29917;DHT22;16786;49.466;11.068;2023-02-13T00:19:33;3.70;99.90
29917;DHT22;16786;49.466;11.068;2023-02-13T00:22:00;3.70;99.90
29917;DHT22;16786;49.466;11.068;2023-02-13T00:24:27;3.60;99.90
29917;DHT22;16786;49.466;11.068;2023-02-13T00:26:54;3.60;99.90
29917;DHT22;16786;49.466;11.068;2023-02-13T00:29:22;3.60;99.90
29917;DHT22;16786;49.466;11.068;2023-02-13T00:31:50;3.50;99.90
29917;DHT22;16786;49.466;11.068;2023-02-13T00:34:18;3.40;99.90
29917;DHT22;16786;49.466;11.068;2023-02-13T00:36:45;3.40;99.90
29917;DHT22;16786;49.466;11.068;2023-02-13T00:39:12;3.30;99.90
29917;DHT22;16786;49.466;11.068;2023-02-13T00:41:40;3.30;99.90
29917;DHT22;16786;49.466;11.068;2023-02-13T00:44:08;3.20;99.90
29917;DHT22;16786;49.466;11.068;2023-02-13T00:46:36;3.20;99.90
29917;DHT22;16786;49.466;11.068;2023-02-13T00:49:04;3.20;99.90
29917;DHT22;16786;49.466;11.068;2023-02-13T00:51:33;3.20;99.90
29917;DHT22;16786;49.466;11.068;2023-02-13T00:54:01;3.10;99.90
29917;DHT22;16786;49.466;11.068;2023-02-13T00:56:28;3.10;99.90
29917;DHT22;16786;49.466;11.068;2023-02-13T00:58:55;3.10;99.90
29917;DHT22;16786;49.466;11.068;2023-02-13T01:01:24;3.10;99.90
29917;DHT22;16786;49.466;11.068;2023-02-13T01:03:51;3.00;99.90
29917;DHT22;16786;49.466;11.068;2023-02-13T01:06:20;2.90;99.90
29917;DHT22;16786;49.466;11.068;2023-02-13T01:08:47;2.90;99.90
29917;DHT22;16786;49.466;11.068;2023-02-13T01:11:14;2.80;99.90
29917;DHT22;16786;49.466;11.068;2023-02-13T01:13:43;2.70;99.90
29917;DHT22;16786;49.466;11.068;2023-02-13T01:16:10;2.70;99.90
29917;DHT22;16786;49.466;11.068;2023-02-13T01:18:38;2.70;99.90
29917;DHT22;16786;49.466;11.068;2023-02-13T01:21:07;2.60;99.90
29917;DHT22;16786;49.466;11.068;2023-02-13T01:23:36;2.60;99.90
29917;DHT22;16786;49.466;11.068;2023-02-13T01:26:05;2.60;99.90
29917;DHT22;16786;49.466;11.068;2023-02-13T01:28:33;2.50;99.90
29917;DHT22;16786;49.466;11.068;2023-02-13T01:31:00;2.40;99.90
29917;DHT22;16786;49.466;11.068;2023-02-13T01:33:29;2.40;99.90
29917;DHT22;16786;49.466;11.068;2023-02-13T01:35:56;2.30;99.90
29917;DHT22;16786;49.466;11.068;2023-02-13T01:38:24;2.20;99.90
29917;DHT22;16786;49.466;11.068;2023-02-13T01:40:53;2.20;99.90
29917;DHT22;16786;49.466;11.068;2023-02-13T01:43:21;2.20;99.90
29917;DHT22;16786;49.466;11.068;2023-02-13T01:45:53;2.10;99.90
29917;DHT22;16786;49.466;11.068;2023-02-13T01:48:26;2.00;99.90
29917;DHT22;16786;49.466;11.068;2023-02-13T01:51:04;2.00;99.90
29917;DHT22;16786;49.466;11.068;2023-02-13T01:53:42;1.90;99.90
29917;DHT22;16786;49.466;11.068;2023-02-13T01:56:24;1.90;99.90
29917;DHT22;16786;49.466;11.068;2023-02-13T01:58:54;1.90;99.90
29917;DHT22;16786;49.466;11.068;2023-02-13T02:01:22;1.90;99.90
29917;DHT22;16786;49.466;11.068;2023-02-13T02:04:06;1.90;99.90
29917;DHT22;16786;49.466;11.068;2023-02-13T02:06:37;1.80;99.90
29917;DHT22;16786;49.466;11.068;2023-02-13T02:09:16;1.90;99.90
29917;DHT22;16786;49.466;11.068;2023-02-13T02:12:05;1.90;99.90
29917;DHT22;16786;49.466;11.068;2023-02-13T02:14:37;1.90;99.90
29917;DHT22;16786;49.466;11.068;2023-02-13T02:17:08;1.80;99.90
29917;DHT22;16786;49.466;11.068;2023-02-13T02:26:08;1.80;99.90
29917;DHT22;16786;49.466;11.068;2023-02-13T02:31:20;1.80;99.90
29917;DHT22;16786;49.466;11.068;2023-02-13T02:45:48;1.70;99.90
29917;DHT22;16786;49.466;11.068;2023-02-13T02:54:16;1.50;99.90
29917;DHT22;16786;49.466;11.068;2023-02-13T02:57:11;1.50;99.90
29917;DHT22;16786;49.466;11.068;2023-02-13T02:59:42;1.50;99.90
29917;DHT22;16786;49.466;11.068;2023-02-13T03:02:29;1.50;99.90
29917;DHT22;16786;49.466;11.068;2023-02-13T03:05:37;1.50;99.90
29917;DHT22;16786;49.466;11.068;2023-02-13T03:08:28;1.40;99.90
29917;DHT22;16786;49.466;11.068;2023-02-13T03:11:13;1.40;99.90
29917;DHT22;16786;49.466;11.068;2023-02-13T03:14:01;1.40;99.90
29917;DHT22;16786;49.466;11.068;2023-02-13T03:16:30;1.40;99.90
29917;DHT22;16786;49.466;11.068;2023-02-13T03:19:30;1.40;99.90
29917;DHT22;16786;49.466;11.068;2023-02-13T03:25:20;1.20;99.90
29917;DHT22;16786;49.466;11.068;2023-02-13T03:39:25;1.10;99.90
29917;DHT22;16786;49.466;11.068;2023-02-13T03:42:11;1.00;99.90
29917;DHT22;16786;49.466;11.068;2023-02-13T03:44:48;1.00;99.90
29917;DHT22;16786;49.466;11.068;2023-02-13T03:47:38;0.90;99.90
29917;DHT22;16786;49.466;11.068;2023-02-13T03:50:10;0.90;99.90
29917;DHT22;16786;49.466;11.068;2023-02-13T03:52:58;0.90;99.90
29917;DHT22;16786;49.466;11.068;2023-02-13T03:55:34;0.80;99.90
29917;DHT22;16786;49.466;11.068;2023-02-13T03:58:38;0.80;99.90
29917;DHT22;16786;49.466;11.068;2023-02-13T04:01:27;0.70;99.90
29917;DHT22;16786;49.466;11.068;2023-02-13T04:04:12;0.60;99.90
29917;DHT22;16786;49.466;11.068;2023-02-13T04:06:56;0.50;99.90
29917;DHT22;16786;49.466;11.068;2023-02-13T04:09:27;0.50;99.90
29917;DHT22;16786;49.466;11.068;2023-02-13T04:14:39;0.40;99.90
29917;DHT22;16786;49.466;11.068;2023-02-13T04:17:19;0.30;99.90
29917;DHT22;16786;49.466;11.068;2023-02-13T04:19:50;0.30;99.90
29917;DHT22;16786;49.466;11.068;2023-02-13T04:22:17;0.20;99.90
29917;DHT22;16786;49.466;11.068;2023-02-13T04:24:44;0.10;99.90
29917;DHT22;16786;49.466;11.068;2023-02-13T04:27:13;0.10;99.90
29917;DHT22;16786;49.466;11.068;2023-02-13T04:29:41;0.00;99.90
29917;DHT22;16786;49.466;11.068;2023-02-13T04:32:10;0.00;99.90
29917;DHT22;16786;49.466;11.068;2023-02-13T04:34:37;0.00;99.90
29917;DHT22;16786;49.466;11.068;2023-02-13T04:37:05;0.00;99.90
29917;DHT22;16786;49.466;11.068;2023-02-13T04:39:32;0.00;99.90
29917;DHT22;16786;49.466;11.068;2023-02-13T04:41:59;0.00;99.90
29917;DHT22;16786;49.466;11.068;2023-02-13T04:44:26;0.00;99.90
29917;DHT22;16786;49.466;11.068;2023-02-13T04:46:54;0.10;99.90
29917;DHT22;16786;49.466;11.068;2023-02-13T04:49:21;0.20;99.90
29917;DHT22;16786;49.466;11.068;2023-02-13T04:51:48;0.20;99.90
29917;DHT22;16786;49.466;11.068;2023-02-13T04:54:15;0.30;99.90
29917;DHT22;16786;49.466;11.068;2023-02-13T04:56:43;0.30;99.90
29917;DHT22;16786;49.466;11.068;2023-02-13T04:59:10;0.30;99.90
29917;DHT22;16786;49.466;11.068;2023-02-13T05:01:37;0.30;99.90
29917;DHT22;16786;49.466;11.068;2023-02-13T05:04:04;0.30;99.90
29917;DHT22;16786;49.466;11.068;2023-02-13T05:06:32;0.30;99.90
29917;DHT22;16786;49.466;11.068;2023-02-13T05:08:59;0.20;99.90
29917;DHT22;16786;49.466;11.068;2023-02-13T05:11:26;0.30;99.90
29917;DHT22;16786;49.466;11.068;2023-02-13T05:13:54;0.30;99.90
29917;DHT22;16786;49.466;11.068;2023-02-13T05:16:21;0.30;99.90
29917;DHT22;16786;49.466;11.068;2023-02-13T05:18:48;0.30;99.90
29917;DHT22;16786;49.466;11.068;2023-02-13T05:21:16;0.30;99.90
29917;DHT22;16786;49.466;11.068;2023-02-13T05:24:02;0.30;99.90
29917;DHT22;16786;49.466;11.068;2023-02-13T05:26:29;0.40;99.90
29917;DHT22;16786;49.466;11.068;2023-02-13T05:28:56;0.30;99.90
29917;DHT22;16786;49.466;11.068;2023-02-13T05:31:42;0.40;99.90
29917;DHT22;16786;49.466;11.068;2023-02-13T05:34:09;0.40;99.90
29917;DHT22;16786;49.466;11.068;2023-02-13T05:36:37;0.30;99.90
29917;DHT22;16786;49.466;11.068;2023-02-13T05:39:04;0.40;99.90
29917;DHT22;16786;49.466;11.068;2023-02-13T05:41:32;0.30;99.90
29917;DHT22;16786;49.466;11.068;2023-02-13T05:43:59;0.30;99.90
29917;DHT22;16786;49.466;11.068;2023-02-13T05:46:26;0.30;99.90
29917;DHT22;16786;49.466;11.068;2023-02-13T05:48:54;0.40;99.90
29917;DHT22;16786;49.466;11.068;2023-02-13T05:51:21;0.40;99.90
29917;DHT22;16786;49.466;11.068;2023-02-13T05:53:49;0.50;99.90
29917;DHT22;16786;49.466;11.068;2023-02-13T05:56:16;0.50;99.90
29917;DHT22;16786;49.466;11.068;2023-02-13T05:58:43;0.50;99.90
29917;DHT22;16786;49.466;11.068;2023-02-13T06:01:11;0.60;99.90
29917;DHT22;16786;49.466;11.068;2023-02-13T06:03:39;0.60;99.90
29917;DHT22;16786;49.466;11.068;2023-02-13T06:06:06;0.60;99.90
29917;DHT22;16786;49.466;11.068;2023-02-13T06:08:33;0.60;99.90
29917;DHT22;16786;49.466;11.068;2023-02-13T06:11:03;0.70;99.90
29917;DHT22;16786;49.466;11.068;2023-02-13T06:13:30;0.70;99.90
29917;DHT22;16786;49.466;11.068;2023-02-13T06:15:58;0.70;99.90
29917;DHT22;16786;49.466;11.068;2023-02-13T06:18:25;0.70;99.90
29917;DHT22;16786;49.466;11.068;2023-02-13T06:20:52;0.80;99.90
29917;DHT22;16786;49.466;11.068;2023-02-13T06:23:19;0.80;99.90
29917;DHT22;16786;49.466;11.068;2023-02-13T06:25:47;0.90;99.90
29917;DHT22;16786;49.466;11.068;2023-02-13T06:28:14;0.90;99.90
29917;DHT22;16786;49.466;11.068;2023-02-13T06:30:41;0.90;99.90
29917;DHT22;16786;49.466;11.068;2023-02-13T06:33:09;0.90;99.90
29917;DHT22;16786;49.466;11.068;2023-02-13T06:35:36;0.90;99.90
29917;DHT22;16786;49.466;11.068;2023-02-13T06:38:03;0.90;99.90
29917;DHT22;16786;49.466;11.068;2023-02-13T06:40:30;0.80;99.90
29917;DHT22;16786;49.466;11.068;2023-02-13T06:42:58;0.80;99.90
29917;DHT22;16786;49.466;11.068;2023-02-13T06:45:25;0.90;99.90
29917;DHT22;16786;49.466;11.068;2023-02-13T06:47:52;0.80;99.90
29917;DHT22;16786;49.466;11.068;2023-02-13T06:50:20;0.80;99.90
29917;DHT22;16786;49.466;11.068;2023-02-13T06:52:49;0.90;99.90
29917;DHT22;16786;49.466;11.068;2023-02-13T06:55:17;0.90;99.90
29917;DHT22;16786;49.466;11.068;2023-02-13T06:57:44;0.90;99.90
29917;DHT22;16786;49.466;11.068;2023-02-13T07:00:14;0.90;99.90
29917;DHT22;16786;49.466;11.068;2023-02-13T07:02:43;0.90;99.90
29917;DHT22;16786;49.466;11.068;2023-02-13T07:05:10;1.00;99.90
29917;DHT22;16786;49.466;11.068;2023-02-13T07:07:39;1.00;99.90
29917;DHT22;16786;49.466;11.068;2023-02-13T07:10:09;1.00;99.90
29917;DHT22;16786;49.466;11.068;2023-02-13T07:12:38;1.10;99.90
29917;DHT22;16786;49.466;11.068;2023-02-13T07:15:06;1.10;99.90
29917;DHT22;16786;49.466;11.068;2023-02-13T07:17:34;1.20;99.90
29917;DHT22;16786;49.466;11.068;2023-02-13T07:20:03;1.30;99.90
29917;DHT22;16786;49.466;11.068;2023-02-13T07:22:39;1.30;99.90
29917;DHT22;16786;49.466;11.068;2023-02-13T07:25:06;1.40;99.90
29917;DHT22;16786;49.466;11.068;2023-02-13T07:27:34;1.50;99.90
29917;DHT22;16786;49.466;11.068;2023-02-13T07:30:01;1.50;99.90
29917;DHT22;16786;49.466;11.068;2023-02-13T07:32:28;1.60;99.90
29917;DHT22;16786;49.466;11.068;2023-02-13T07:34:56;1.60;99.90
29917;DHT22;16786;49.466;11.068;2023-02-13T07:37:29;1.70;99.90
29917;DHT22;16786;49.466;11.068;2023-02-13T07:39:57;1.70;99.90
29917;DHT22;16786;49.466;11.068;2023-02-13T07:42:24;1.80;99.90
29917;DHT22;16786;49.466;11.068;2023-02-13T07:44:52;1.90;99.90
29917;DHT22;16786;49.466;11.068;2023-02-13T07:47:19;2.00;99.90
29917;DHT22;16786;49.466;11.068;2023-02-13T07:49:46;2.10;99.90
29917;DHT22;16786;49.466;11.068;2023-02-13T07:52:13;2.10;99.90
29917;DHT22;16786;49.466;11.068;2023-02-13T07:54:40;2.20;99.90
29917;DHT22;16786;49.466;11.068;2023-02-13T07:57:14;2.10;99.90
29917;DHT22;16786;49.466;11.068;2023-02-13T07:59:42;2.10;99.90
29917;DHT22;16786;49.466;11.068;2023-02-13T08:02:13;2.20;99.90
29917;DHT22;16786;49.466;11.068;2023-02-13T08:04:41;2.10;99.90
29917;DHT22;16786;49.466;11.068;2023-02-13T08:07:15;2.20;99.90
29917;DHT22;16786;49.466;11.068;2023-02-13T08:09:44;2.20;99.90
29917;DHT22;16786;49.466;11.068;2023-02-13T08:12:32;2.30;99.90
29917;DHT22;16786;49.466;11.068;2023-02-13T08:15:00;2.30;99.90
29917;DHT22;16786;49.466;11.068;2023-02-13T08:17:28;2.50;99.90
29917;DHT22;16786;49.466;11.068;2023-02-13T08:19:55;2.50;99.90
29917;DHT22;16786;49.466;11.068;2023-02-13T08:22:22;2.50;99.90
29917;DHT22;16786;49.466;11.068;2023-02-13T08:24:50;2.60;99.90
29917;DHT22;16786;49.466;11.068;2023-02-13T08:27:17;2.80;99.90
29917;DHT22;16786;49.466;11.068;2023-02-13T08:29:44;2.90;99.90
29917;DHT22;16786;49.466;11.068;2023-02-13T08:32:12;3.00;99.90
29917;DHT22;16786;49.466;11.068;2023-02-13T08:34:39;3.00;99.90
29917;DHT22;16786;49.466;11.068;2023-02-13T08:37:06;3.00;99.90
29917;DHT22;16786;49.466;11.068;2023-02-13T08:39:34;3.20;99.90
29917;DHT22;16786;49.466;11.068;2023-02-13T08:42:01;3.10;99.90
29917;DHT22;16786;49.466;11.068;2023-02-13T08:44:28;3.00;99.90
29917;DHT22;16786;49.466;11.068;2023-02-13T08:46:56;3.00;99.90
29917;DHT22;16786;49.466;11.068;2023-02-13T08:49:23;3.10;99.90
29917;DHT22;16786;49.466;11.068;2023-02-13T08:51:50;3.10;99.90
29917;DHT22;16786;49.466;11.068;2023-02-13T08:54:18;3.30;99.90
29917;DHT22;16786;49.466;11.068;2023-02-13T08:56:45;3.40;99.90
29917;DHT22;16786;49.466;11.068;2023-02-13T08:59:12;3.40;99.90
29917;DHT22;16786;49.466;11.068;2023-02-13T09:01:40;3.40;99.90
29917;DHT22;16786;49.466;11.068;2023-02-13T09:04:08;3.50;99.90
29917;DHT22;16786;49.466;11.068;2023-02-13T09:06:35;3.60;99.90
29917;DHT22;16786;49.466;11.068;2023-02-13T09:09:06;3.70;99.90
29917;DHT22;16786;49.466;11.068;2023-02-13T09:11:33;3.70;99.90
29917;DHT22;16786;49.466;11.068;2023-02-13T09:14:00;3.70;99.90
29917;DHT22;16786;49.466;11.068;2023-02-13T09:16:28;3.90;99.90
29917;DHT22;16786;49.466;11.068;2023-02-13T09:18:55;4.20;99.90
29917;DHT22;16786;49.466;11.068;2023-02-13T09:21:22;4.30;99.90
29917;DHT22;16786;49.466;11.068;2023-02-13T09:23:50;4.30;99.90
29917;DHT22;16786;49.466;11.068;2023-02-13T09:26:18;4.40;99.90
29917;DHT22;16786;49.466;11.068;2023-02-13T09:28:46;4.10;99.90
29917;DHT22;16786;49.466;11.068;2023-02-13T09:31:18;4.20;99.90
29917;DHT22;16786;49.466;11.068;2023-02-13T09:33:47;3.90;99.90
29917;DHT22;16786;49.466;11.068;2023-02-13T09:36:18;3.80;99.90
29917;DHT22;16786;49.466;11.068;2023-02-13T09:38:47;4.00;99.90
29917;DHT22;16786;49.466;11.068;2023-02-13T09:46:39;4.40;99.90
29917;DHT22;16786;49.466;11.068;2023-02-13T09:49:12;4.40;99.90
29917;DHT22;16786;49.466;11.068;2023-02-13T09:51:43;4.40;99.90
29917;DHT22;16786;49.466;11.068;2023-02-13T09:54:15;4.40;99.90
29917;DHT22;16786;49.466;11.068;2023-02-13T09:56:54;4.30;99.90
29917;DHT22;16786;49.466;11.068;2023-02-13T10:08:24;4.80;99.90
29917;DHT22;16786;49.466;11.068;2023-02-13T10:14:16;5.30;99.90
29917;DHT22;16786;49.466;11.068;2023-02-13T10:16:50;5.40;99.90
29917;DHT22;16786;49.466;11.068;2023-02-13T10:19:35;5.50;99.90
29917;DHT22;16786;49.466;11.068;2023-02-13T10:22:12;5.50;99.90
29917;DHT22;16786;49.466;11.068;2023-02-13T10:27:25;5.80;99.90
29917;DHT22;16786;49.466;11.068;2023-02-13T10:30:04;6.00;99.90
29917;DHT22;16786;49.466;11.068;2023-02-13T10:35:29;6.10;99.90
29917;DHT22;16786;49.466;11.068;2023-02-13T10:37:58;6.30;99.90
29917;DHT22;16786;49.466;11.068;2023-02-13T10:40:32;6.50;99.90
29917;DHT22;16786;49.466;11.068;2023-02-13T10:43:09;6.60;99.90
29917;DHT22;16786;49.466;11.068;2023-02-13T10:45:55;6.80;99.90
29917;DHT22;16786;49.466;11.068;2023-02-13T10:54:04;7.10;99.90
29917;DHT22;16786;49.466;11.068;2023-02-13T10:59:49;7.30;99.90
29917;DHT22;16786;49.466;11.068;2023-02-13T11:02:27;7.40;99.90
29917;DHT22;16786;49.466;11.068;2023-02-13T11:07:33;7.70;99.90
29917;DHT22;16786;49.466;11.068;2023-02-13T11:10:12;7.90;99.90
29917;DHT22;16786;49.466;11.068;2023-02-13T11:12:39;8.00;99.90
29917;DHT22;16786;49.466;11.068;2023-02-13T11:15:22;8.40;99.90
29917;DHT22;16786;49.466;11.068;2023-02-13T11:17:51;8.60;99.90
29917;DHT22;16786;49.466;11.068;2023-02-13T11:20:32;8.70;99.90
29917;DHT22;16786;49.466;11.068;2023-02-13T11:26:00;9.10;99.90
29917;DHT22;16786;49.466;11.068;2023-02-13T11:28:31;9.40;99.90
29917;DHT22;16786;49.466;11.068;2023-02-13T11:31:17;9.70;99.90
29917;DHT22;16786;49.466;11.068;2023-02-13T11:33:47;10.10;99.90
29917;DHT22;16786;49.466;11.068;2023-02-13T11:39:18;10.70;99.90
29917;DHT22;16786;49.466;11.068;2023-02-13T11:41:47;10.80;99.90
29917;DHT22;16786;49.466;11.068;2023-02-13T11:44:31;10.90;99.90
29917;DHT22;16786;49.466;11.068;2023-02-13T11:46:59;11.30;99.90
29917;DHT22;16786;49.466;11.068;2023-02-13T11:49:44;11.60;99.90
29917;DHT22;16786;49.466;11.068;2023-02-13T11:52:27;11.80;99.90
29917;DHT22;16786;49.466;11.068;2023-02-13T11:55:23;12.00;99.90
29917;DHT22;16786;49.466;11.068;2023-02-13T11:58:03;12.40;99.90
29917;DHT22;16786;49.466;11.068;2023-02-13T12:00:46;12.50;99.90
29917;DHT22;16786;49.466;11.068;2023-02-13T12:06:09;12.50;99.90
29917;DHT22;16786;49.466;11.068;2023-02-13T12:08:44;12.90;99.90
29917;DHT22;16786;49.466;11.068;2023-02-13T12:13:54;13.50;99.90
29917;DHT22;16786;49.466;11.068;2023-02-13T12:18:52;13.90;99.90
29917;DHT22;16786;49.466;11.068;2023-02-13T12:24:23;13.90;99.90
29917;DHT22;16786;49.466;11.068;2023-02-13T12:27:11;14.20;99.90
29917;DHT22;16786;49.466;11.068;2023-02-13T12:30:11;14.60;99.90
29917;DHT22;16786;49.466;11.068;2023-02-13T12:50:06;18.60;99.90
29917;DHT22;16786;49.466;11.068;2023-02-13T12:52:55;18.70;99.90
29917;DHT22;16786;49.466;11.068;2023-02-13T13:01:02;20.60;99.90
29917;DHT22;16786;49.466;11.068;2023-02-13T13:17:42;21.90;94.10
29917;DHT22;16786;49.466;11.068;2023-02-13T13:20:35;22.00;93.90
29917;DHT22;16786;49.466;11.068;2023-02-13T13:28:38;23.70;90.00
29917;DHT22;16786;49.466;11.068;2023-02-13T13:31:06;24.30;87.20
29917;DHT22;16786;49.466;11.068;2023-02-13T13:33:35;24.30;85.80
29917;DHT22;16786;49.466;11.068;2023-02-13T13:41:34;24.50;82.90
29917;DHT22;16786;49.466;11.068;2023-02-13T13:52:36;25.40;78.00
29917;DHT22;16786;49.466;11.068;2023-02-13T13:55:04;25.70;76.50
29917;DHT22;16786;49.466;11.068;2023-02-13T14:00:04;25.10;77.10
29917;DHT22;16786;49.466;11.068;2023-02-13T14:02:50;25.60;75.20
29917;DHT22;16786;49.466;11.068;2023-02-13T14:05:27;25.50;74.40
29917;DHT22;16786;49.466;11.068;2023-02-13T14:07:58;25.30;74.10
29917;DHT22;16786;49.466;11.068;2023-02-13T14:20:49;25.70;72.50
29917;DHT22;16786;49.466;11.068;2023-02-13T14:23:27;25.70;72.20
29917;DHT22;16786;49.466;11.068;2023-02-13T14:31:31;27.60;68.70
29917;DHT22;16786;49.466;11.068;2023-02-13T14:36:40;27.60;66.00
29917;DHT22;16786;49.466;11.068;2023-02-13T14:39:24;27.50;65.80
29917;DHT22;16786;49.466;11.068;2023-02-13T14:44:24;27.70;64.10
29917;DHT22;16786;49.466;11.068;2023-02-13T14:46:54;26.60;65.40
29917;DHT22;16786;49.466;11.068;2023-02-13T14:49:26;26.40;66.00
29917;DHT22;16786;49.466;11.068;2023-02-13T14:52:17;27.70;65.00
29917;DHT22;16786;49.466;11.068;2023-02-13T14:54:51;27.00;64.50
29917;DHT22;16786;49.466;11.068;2023-02-13T14:57:22;26.30;64.50
29917;DHT22;16786;49.466;11.068;2023-02-13T14:59:58;26.20;66.40
29917;DHT22;16786;49.466;11.068;2023-02-13T15:02:31;25.20;68.20
29917;DHT22;16786;49.466;11.068;2023-02-13T15:05:06;25.50;68.50
29917;DHT22;16786;49.466;11.068;2023-02-13T15:07:36;25.60;67.60
29917;DHT22;16786;49.466;11.068;2023-02-13T15:10:39;25.40;68.50
29917;DHT22;16786;49.466;11.068;2023-02-13T15:13:20;25.00;68.90
29917;DHT22;16786;49.466;11.068;2023-02-13T15:15:52;24.90;68.90
29917;DHT22;16786;49.466;11.068;2023-02-13T15:18:29;24.70;69.00
29917;DHT22;16786;49.466;11.068;2023-02-13T15:20:58;24.10;70.10
29917;DHT22;16786;49.466;11.068;2023-02-13T15:23:29;24.60;69.40
29917;DHT22;16786;49.466;11.068;2023-02-13T15:26:02;24.90;69.20
29917;DHT22;16786;49.466;11.068;2023-02-13T15:28:31;25.10;69.00
29917;DHT22;16786;49.466;11.068;2023-02-13T15:31:01;24.80;68.90
29917;DHT22;16786;49.466;11.068;2023-02-13T15:33:49;24.70;68.60
29917;DHT22;16786;49.466;11.068;2023-02-13T15:36:22;24.00;69.60
29917;DHT22;16786;49.466;11.068;2023-02-13T15:38:58;23.80;69.70
29917;DHT22;16786;49.466;11.068;2023-02-13T15:41:31;22.10;72.40
29917;DHT22;16786;49.466;11.068;2023-02-13T15:43:59;22.30;72.60
29917;DHT22;16786;49.466;11.068;2023-02-13T15:46:29;21.60;73.50
29917;DHT22;16786;49.466;11.068;2023-02-13T15:49:07;22.10;72.90
29917;DHT22;16786;49.466;11.068;2023-02-13T15:51:36;21.90;73.00
29917;DHT22;16786;49.466;11.068;2023-02-13T15:54:06;20.70;75.90
29917;DHT22;16786;49.466;11.068;2023-02-13T15:56:34;20.20;75.90
29917;DHT22;16786;49.466;11.068;2023-02-13T15:59:03;19.60;77.60
29917;DHT22;16786;49.466;11.068;2023-02-13T16:01:32;19.70;77.90
29917;DHT22;16786;49.466;11.068;2023-02-13T16:04:05;18.60;80.30
29917;DHT22;16786;49.466;11.068;2023-02-13T16:06:35;18.60;80.40
29917;DHT22;16786;49.466;11.068;2023-02-13T16:09:03;18.10;81.70
29917;DHT22;16786;49.466;11.068;2023-02-13T16:11:39;17.10;83.60
29917;DHT22;16786;49.466;11.068;2023-02-13T16:16:57;15.30;90.10
29917;DHT22;16786;49.466;11.068;2023-02-13T16:22:37;13.90;93.60
29917;DHT22;16786;49.466;11.068;2023-02-13T16:27:49;12.50;98.60
29917;DHT22;16786;49.466;11.068;2023-02-13T16:40:52;8.90;99.90
29917;DHT22;16786;49.466;11.068;2023-02-13T16:43:39;8.50;99.90
29917;DHT22;16786;49.466;11.068;2023-02-13T16:48:38;8.00;99.90
29917;DHT22;16786;49.466;11.068;2023-02-13T16:51:07;7.90;99.90
29917;DHT22;16786;49.466;11.068;2023-02-13T16:53:35;7.70;99.90
29917;DHT22;16786;49.466;11.068;2023-02-13T16:56:10;7.60;99.90
29917;DHT22;16786;49.466;11.068;2023-02-13T16:58:37;7.40;99.90
29917;DHT22;16786;49.466;11.068;2023-02-13T17:01:05;7.30;99.90
29917;DHT22;16786;49.466;11.068;2023-02-13T17:03:34;7.10;99.90
29917;DHT22;16786;49.466;11.068;2023-02-13T17:06:02;7.00;99.90
29917;DHT22;16786;49.466;11.068;2023-02-13T17:08:30;6.90;99.90
29917;DHT22;16786;49.466;11.068;2023-02-13T17:11:05;6.80;99.90
29917;DHT22;16786;49.466;11.068;2023-02-13T17:13:34;6.70;99.90
29917;DHT22;16786;49.466;11.068;2023-02-13T17:16:03;6.70;99.90
29917;DHT22;16786;49.466;11.068;2023-02-13T17:18:30;6.60;99.90
29917;DHT22;16786;49.466;11.068;2023-02-13T17:20:59;6.50;99.90
29917;DHT22;16786;49.466;11.068;2023-02-13T17:23:27;6.40;99.90
29917;DHT22;16786;49.466;11.068;2023-02-13T17:25:54;6.30;99.90
29917;DHT22;16786;49.466;11.068;2023-02-13T17:28:25;6.30;99.90
29917;DHT22;16786;49.466;11.068;2023-02-13T17:30:56;6.20;99.90
29917;DHT22;16786;49.466;11.068;2023-02-13T17:33:27;6.10;99.90
29917;DHT22;16786;49.466;11.068;2023-02-13T17:35:55;6.00;99.90
29917;DHT22;16786;49.466;11.068;2023-02-13T17:38:23;5.90;99.90
29917;DHT22;16786;49.466;11.068;2023-02-13T17:40:51;5.90;99.90
29917;DHT22;16786;49.466;11.068;2023-02-13T17:43:20;5.80;99.90
29917;DHT22;16786;49.466;11.068;2023-02-13T17:45:48;5.80;99.90
29917;DHT22;16786;49.466;11.068;2023-02-13T17:48:16;5.70;99.90
29917;DHT22;16786;49.466;11.068;2023-02-13T17:50:44;5.70;99.90
29917;DHT22;16786;49.466;11.068;2023-02-13T17:53:28;5.60;99.90
29917;DHT22;16786;49.466;11.068;2023-02-13T17:55:56;5.50;99.90
29917;DHT22;16786;49.466;11.068;2023-02-13T17:58:24;5.40;99.90
29917;DHT22;16786;49.466;11.068;2023-02-13T18:00:52;5.40;99.90
29917;DHT22;16786;49.466;11.068;2023-02-13T18:03:20;5.40;99.90
29917;DHT22;16786;49.466;11.068;2023-02-13T18:05:49;5.40;99.90
29917;DHT22;16786;49.466;11.068;2023-02-13T18:08:16;5.30;99.90
29917;DHT22;16786;49.466;11.068;2023-02-13T18:10:44;5.30;99.90
29917;DHT22;16786;49.466;11.068;2023-02-13T18:13:12;5.20;99.90
29917;DHT22;16786;49.466;11.068;2023-02-13T18:15:41;5.20;99.90
29917;DHT22;16786;49.466;11.068;2023-02-13T18:18:09;5.20;99.90
29917;DHT22;16786;49.466;11.068;2023-02-13T18:20:37;5.20;99.90
29917;DHT22;16786;49.466;11.068;2023-02-13T18:23:05;5.20;99.90
29917;DHT22;16786;49.466;11.068;2023-02-13T18:25:33;5.10;99.90
29917;DHT22;16786;49.466;11.068;2023-02-13T18:28:01;5.10;99.90
29917;DHT22;16786;49.466;11.068;2023-02-13T18:30:29;5.10;99.90
29917;DHT22;16786;49.466;11.068;2023-02-13T18:32:57;5.00;99.90
29917;DHT22;16786;49.466;11.068;2023-02-13T18:35:25;5.00;99.90
29917;DHT22;16786;49.466;11.068;2023-02-13T18:37:52;5.00;99.90
29917;DHT22;16786;49.466;11.068;2023-02-13T18:40:20;5.00;99.90
29917;DHT22;16786;49.466;11.068;2023-02-13T18:42:48;5.00;99.90
29917;DHT22;16786;49.466;11.068;2023-02-13T18:45:17;5.00;99.90
29917;DHT22;16786;49.466;11.068;2023-02-13T18:47:44;4.90;99.90
29917;DHT22;16786;49.466;11.068;2023-02-13T18:50:11;4.80;99.90
29917;DHT22;16786;49.466;11.068;2023-02-13T18:52:43;4.80;99.90
29917;DHT22;16786;49.466;11.068;2023-02-13T18:55:10;4.70;99.90
29917;DHT22;16786;49.466;11.068;2023-02-13T18:57:37;4.50;99.90
29917;DHT22;16786;49.466;11.068;2023-02-13T19:00:10;4.30;99.90
29917;DHT22;16786;49.466;11.068;2023-02-13T19:02:37;4.20;99.90
29917;DHT22;16786;49.466;11.068;2023-02-13T19:05:05;4.10;99.90
29917;DHT22;16786;49.466;11.068;2023-02-13T19:07:32;4.00;99.90
29917;DHT22;16786;49.466;11.068;2023-02-13T19:09:59;4.00;99.90
29917;DHT22;16786;49.466;11.068;2023-02-13T19:12:27;3.80;99.90